sensor_id;sensor_type;location;lat;lon;timestamp;temperature;humidity
43997;DHT22;34318;45.818;15.964;2022-08-19T00:00:04;27.60;57.40
43997;DHT22;34318;45.818;15.964;2022-08-19T00:02:32;27.60;57.50
43997;DHT22;34318;45.818;15.964;2022-08-19T00:04:58;27.60;57.40
43997;DHT22;34318;45.818;15.964;2022-08-19T00:07:34;27.60;57.50
43997;DHT22;34318;45.818;15.964;2022-08-19T00:10:02;27.70;57.50
43997;DHT22;34318;45.818;15.964;2022-08-19T00:12:29;27.60;57.60
43997;DHT22;34318;45.818;15.964;2022-08-19T00:14:57;27.70;57.70
43997;DHT22;34318;45.818;15.964;2022-08-19T00:17:26;27.60;57.90
43997;DHT22;34318;45.818;15.964;2022-08-19T00:19:53;27.60;57.80
43997;DHT22;34318;45.818;15.964;2022-08-19T00:22:20;27.60;57.90
43997;DHT22;34318;45.818;15.964;2022-08-19T00:24:47;27.60;57.80
43997;DHT22;34318;45.818;15.964;2022-08-19T00:27:16;27.50;58.00
43997;DHT22;34318;45.818;15.964;2022-08-19T00:29:52;27.60;58.10
43997;DHT22;34318;45.818;15.964;2022-08-19T00:32:19;27.50;58.20
43997;DHT22;34318;45.818;15.964;2022-08-19T00:34:53;27.60;58.10
43997;DHT22;34318;45.818;15.964;2022-08-19T00:37:22;27.60;58.10
43997;DHT22;34318;45.818;15.964;2022-08-19T00:39:50;27.60;58.20
43997;DHT22;34318;45.818;15.964;2022-08-19T00:42:19;27.60;58.30
43997;DHT22;34318;45.818;15.964;2022-08-19T00:44:47;27.60;58.40
43997;DHT22;34318;45.818;15.964;2022-08-19T00:47:17;27.50;58.50
43997;DHT22;34318;45.818;15.964;2022-08-19T00:49:48;27.50;58.60
43997;DHT22;34318;45.818;15.964;2022-08-19T00:52:32;27.50;58.80
43997;DHT22;34318;45.818;15.964;2022-08-19T00:55:04;27.60;58.70
43997;DHT22;34318;45.818;15.964;2022-08-19T00:57:38;27.60;58.70
43997;DHT22;34318;45.818;15.964;2022-08-19T01:00:08;27.60;58.80
43997;DHT22;34318;45.818;15.964;2022-08-19T01:02:41;27.50;59.00
43997;DHT22;34318;45.818;15.964;2022-08-19T01:05:15;27.40;59.20
43997;DHT22;34318;45.818;15.964;2022-08-19T01:07:48;27.40;59.30
43997;DHT22;34318;45.818;15.964;2022-08-19T01:10:21;27.40;59.20
43997;DHT22;34318;45.818;15.964;2022-08-19T01:12:50;27.50;59.20
43997;DHT22;34318;45.818;15.964;2022-08-19T01:15:24;27.50;59.10
43997;DHT22;34318;45.818;15.964;2022-08-19T01:17:53;27.50;59.20
43997;DHT22;34318;45.818;15.964;2022-08-19T01:20:22;27.50;59.20
43997;DHT22;34318;45.818;15.964;2022-08-19T01:22:57;27.40;59.30
43997;DHT22;34318;45.818;15.964;2022-08-19T01:25:31;27.40;59.40
43997;DHT22;34318;45.818;15.964;2022-08-19T01:27:59;27.40;59.20
43997;DHT22;34318;45.818;15.964;2022-08-19T01:30:37;27.50;59.40
43997;DHT22;34318;45.818;15.964;2022-08-19T01:33:07;27.40;59.20
43997;DHT22;34318;45.818;15.964;2022-08-19T01:35:35;27.40;59.20
43997;DHT22;34318;45.818;15.964;2022-08-19T01:38:07;27.40;59.30
43997;DHT22;34318;45.818;15.964;2022-08-19T01:40:39;27.40;59.20
43997;DHT22;34318;45.818;15.964;2022-08-19T01:43:06;27.40;59.40
43997;DHT22;34318;45.818;15.964;2022-08-19T01:45:35;27.40;59.50
43997;DHT22;34318;45.818;15.964;2022-08-19T01:48:03;27.40;59.40
43997;DHT22;34318;45.818;15.964;2022-08-19T01:50:33;27.40;59.40
43997;DHT22;34318;45.818;15.964;2022-08-19T01:53:03;27.50;59.30
43997;DHT22;34318;45.818;15.964;2022-08-19T01:55:38;27.40;59.40
43997;DHT22;34318;45.818;15.964;2022-08-19T01:58:34;27.50;59.30
43997;DHT22;34318;45.818;15.964;2022-08-19T02:00:57;27.40;59.50
43997;DHT22;34318;45.818;15.964;2022-08-19T02:03:25;27.40;59.80
43997;DHT22;34318;45.818;15.964;2022-08-19T02:05:59;27.40;59.70
43997;DHT22;34318;45.818;15.964;2022-08-19T02:08:27;27.40;59.70
43997;DHT22;34318;45.818;15.964;2022-08-19T02:10:55;27.40;59.80
43997;DHT22;34318;45.818;15.964;2022-08-19T02:13:24;27.40;59.80
43997;DHT22;34318;45.818;15.964;2022-08-19T02:15:52;27.30;60.10
43997;DHT22;34318;45.818;15.964;2022-08-19T02:18:19;27.40;60.00
43997;DHT22;34318;45.818;15.964;2022-08-19T02:20:53;27.30;60.30
43997;DHT22;34318;45.818;15.964;2022-08-19T02:23:20;27.30;60.30
43997;DHT22;34318;45.818;15.964;2022-08-19T02:25:48;27.20;60.40
43997;DHT22;34318;45.818;15.964;2022-08-19T02:28:16;27.30;60.20
43997;DHT22;34318;45.818;15.964;2022-08-19T02:30:46;27.30;60.30
43997;DHT22;34318;45.818;15.964;2022-08-19T02:33:16;27.30;60.40
43997;DHT22;34318;45.818;15.964;2022-08-19T02:35:45;27.30;60.40
43997;DHT22;34318;45.818;15.964;2022-08-19T02:38:14;27.30;60.40
43997;DHT22;34318;45.818;15.964;2022-08-19T02:40:59;27.30;60.60
43997;DHT22;34318;45.818;15.964;2022-08-19T02:43:27;27.20;60.80
43997;DHT22;34318;45.818;15.964;2022-08-19T02:45:54;27.20;61.00
43997;DHT22;34318;45.818;15.964;2022-08-19T02:48:23;27.30;60.70
43997;DHT22;34318;45.818;15.964;2022-08-19T02:50:52;27.30;60.60
43997;DHT22;34318;45.818;15.964;2022-08-19T02:53:23;27.30;60.90
43997;DHT22;34318;45.818;15.964;2022-08-19T02:55:54;27.30;60.90
43997;DHT22;34318;45.818;15.964;2022-08-19T02:58:22;27.20;61.10
43997;DHT22;34318;45.818;15.964;2022-08-19T03:00:53;27.30;61.00
43997;DHT22;34318;45.818;15.964;2022-08-19T03:03:20;27.20;61.10
43997;DHT22;34318;45.818;15.964;2022-08-19T03:05:48;27.20;61.20
43997;DHT22;34318;45.818;15.964;2022-08-19T03:08:23;27.20;61.30
43997;DHT22;34318;45.818;15.964;2022-08-19T03:10:50;27.30;61.20
43997;DHT22;34318;45.818;15.964;2022-08-19T03:13:20;27.30;61.10
43997;DHT22;34318;45.818;15.964;2022-08-19T03:15:47;27.30;61.30
43997;DHT22;34318;45.818;15.964;2022-08-19T03:18:15;27.20;61.50
43997;DHT22;34318;45.818;15.964;2022-08-19T03:20:45;27.20;61.50
43997;DHT22;34318;45.818;15.964;2022-08-19T03:23:13;27.20;61.50
43997;DHT22;34318;45.818;15.964;2022-08-19T03:25:48;27.30;61.40
43997;DHT22;34318;45.818;15.964;2022-08-19T03:28:39;27.10;62.60
43997;DHT22;34318;45.818;15.964;2022-08-19T03:31:21;27.10;62.10
43997;DHT22;34318;45.818;15.964;2022-08-19T03:34:36;27.10;62.40
43997;DHT22;34318;45.818;15.964;2022-08-19T03:37:05;27.20;62.10
43997;DHT22;34318;45.818;15.964;2022-08-19T03:39:33;27.10;62.30
43997;DHT22;34318;45.818;15.964;2022-08-19T03:42:00;27.10;62.30
43997;DHT22;34318;45.818;15.964;2022-08-19T03:44:49;27.20;62.30
43997;DHT22;34318;45.818;15.964;2022-08-19T03:47:16;27.10;62.60
43997;DHT22;34318;45.818;15.964;2022-08-19T03:49:44;27.10;62.40
43997;DHT22;34318;45.818;15.964;2022-08-19T03:52:11;27.10;62.60
43997;DHT22;34318;45.818;15.964;2022-08-19T03:54:42;27.10;62.40
43997;DHT22;34318;45.818;15.964;2022-08-19T03:57:09;27.10;62.90
43997;DHT22;34318;45.818;15.964;2022-08-19T03:59:37;27.00;63.30
43997;DHT22;34318;45.818;15.964;2022-08-19T04:02:10;27.00;63.60
43997;DHT22;34318;45.818;15.964;2022-08-19T04:04:42;26.90;64.50
43997;DHT22;34318;45.818;15.964;2022-08-19T04:07:13;27.00;64.40
43997;DHT22;34318;45.818;15.964;2022-08-19T04:09:45;26.90;65.20
43997;DHT22;34318;45.818;15.964;2022-08-19T04:12:12;27.00;65.10
43997;DHT22;34318;45.818;15.964;2022-08-19T04:14:40;26.90;65.40
43997;DHT22;34318;45.818;15.964;2022-08-19T04:17:07;26.90;65.50
43997;DHT22;34318;45.818;15.964;2022-08-19T04:19:35;26.90;65.40
43997;DHT22;34318;45.818;15.964;2022-08-19T04:22:03;26.90;65.50
43997;DHT22;34318;45.818;15.964;2022-08-19T04:24:34;26.90;65.50
43997;DHT22;34318;45.818;15.964;2022-08-19T04:27:04;26.90;65.80
43997;DHT22;34318;45.818;15.964;2022-08-19T04:29:34;27.00;65.60
43997;DHT22;34318;45.818;15.964;2022-08-19T04:32:02;26.90;65.60
43997;DHT22;34318;45.818;15.964;2022-08-19T04:34:35;26.90;65.50
43997;DHT22;34318;45.818;15.964;2022-08-19T04:37:25;26.90;65.30
43997;DHT22;34318;45.818;15.964;2022-08-19T04:39:57;26.90;65.10
43997;DHT22;34318;45.818;15.964;2022-08-19T04:42:45;27.00;64.60
43997;DHT22;34318;45.818;15.964;2022-08-19T04:45:14;27.10;64.60
43997;DHT22;34318;45.818;15.964;2022-08-19T04:47:44;27.00;64.30
43997;DHT22;34318;45.818;15.964;2022-08-19T04:50:24;27.10;64.70
43997;DHT22;34318;45.818;15.964;2022-08-19T04:53:01;26.90;64.90
43997;DHT22;34318;45.818;15.964;2022-08-19T04:55:28;27.10;65.30
43997;DHT22;34318;45.818;15.964;2022-08-19T04:57:55;26.90;66.00
43997;DHT22;34318;45.818;15.964;2022-08-19T05:00:23;26.80;66.20
43997;DHT22;34318;45.818;15.964;2022-08-19T05:02:53;27.00;66.20
43997;DHT22;34318;45.818;15.964;2022-08-19T05:05:21;26.90;66.60
43997;DHT22;34318;45.818;15.964;2022-08-19T05:07:51;26.90;67.00
43997;DHT22;34318;45.818;15.964;2022-08-19T05:10:21;26.90;67.10
43997;DHT22;34318;45.818;15.964;2022-08-19T05:12:48;27.00;67.00
43997;DHT22;34318;45.818;15.964;2022-08-19T05:15:17;27.00;66.80
43997;DHT22;34318;45.818;15.964;2022-08-19T05:17:46;27.10;66.50
43997;DHT22;34318;45.818;15.964;2022-08-19T05:20:37;27.20;66.10
43997;DHT22;34318;45.818;15.964;2022-08-19T05:23:23;27.20;66.40
43997;DHT22;34318;45.818;15.964;2022-08-19T05:25:52;27.20;66.60
43997;DHT22;34318;45.818;15.964;2022-08-19T05:28:20;27.20;66.90
43997;DHT22;34318;45.818;15.964;2022-08-19T05:30:47;27.10;67.60
43997;DHT22;34318;45.818;15.964;2022-08-19T05:33:17;27.10;68.00
43997;DHT22;34318;45.818;15.964;2022-08-19T05:35:44;27.10;67.60
43997;DHT22;34318;45.818;15.964;2022-08-19T05:38:12;27.20;67.70
43997;DHT22;34318;45.818;15.964;2022-08-19T05:40:40;27.20;67.30
43997;DHT22;34318;45.818;15.964;2022-08-19T05:43:07;27.20;68.30
43997;DHT22;34318;45.818;15.964;2022-08-19T05:45:39;27.20;68.70
43997;DHT22;34318;45.818;15.964;2022-08-19T05:48:13;27.10;69.60
43997;DHT22;34318;45.818;15.964;2022-08-19T05:50:41;27.10;68.60
43997;DHT22;34318;45.818;15.964;2022-08-19T05:53:08;27.10;68.20
43997;DHT22;34318;45.818;15.964;2022-08-19T05:55:38;27.10;67.50
43997;DHT22;34318;45.818;15.964;2022-08-19T05:58:05;27.10;67.20
43997;DHT22;34318;45.818;15.964;2022-08-19T06:00:44;27.10;66.90
43997;DHT22;34318;45.818;15.964;2022-08-19T06:03:12;26.90;65.60
43997;DHT22;34318;45.818;15.964;2022-08-19T06:05:39;26.90;65.80
43997;DHT22;34318;45.818;15.964;2022-08-19T06:08:17;26.90;65.50
43997;DHT22;34318;45.818;15.964;2022-08-19T06:10:45;27.00;65.00
43997;DHT22;34318;45.818;15.964;2022-08-19T06:13:12;27.00;64.60
43997;DHT22;34318;45.818;15.964;2022-08-19T06:15:39;27.10;64.30
43997;DHT22;34318;45.818;15.964;2022-08-19T06:18:07;27.10;64.00
43997;DHT22;34318;45.818;15.964;2022-08-19T06:20:36;27.20;63.80
43997;DHT22;34318;45.818;15.964;2022-08-19T06:23:21;27.30;63.70
43997;DHT22;34318;45.818;15.964;2022-08-19T06:25:50;27.20;63.70
43997;DHT22;34318;45.818;15.964;2022-08-19T06:28:17;27.30;63.60
43997;DHT22;34318;45.818;15.964;2022-08-19T06:30:44;27.20;64.70
43997;DHT22;34318;45.818;15.964;2022-08-19T06:33:11;27.10;64.40
43997;DHT22;34318;45.818;15.964;2022-08-19T06:35:42;27.00;64.50
43997;DHT22;34318;45.818;15.964;2022-08-19T06:38:15;26.90;64.70
43997;DHT22;34318;45.818;15.964;2022-08-19T06:40:42;27.00;64.50
43997;DHT22;34318;45.818;15.964;2022-08-19T06:43:12;27.10;64.60
43997;DHT22;34318;45.818;15.964;2022-08-19T06:45:44;27.00;64.70
43997;DHT22;34318;45.818;15.964;2022-08-19T06:48:13;27.10;64.40
43997;DHT22;34318;45.818;15.964;2022-08-19T06:50:46;27.10;64.30
43997;DHT22;34318;45.818;15.964;2022-08-19T06:53:15;27.00;64.50
43997;DHT22;34318;45.818;15.964;2022-08-19T06:55:42;27.10;64.10
43997;DHT22;34318;45.818;15.964;2022-08-19T06:58:09;27.20;64.00
43997;DHT22;34318;45.818;15.964;2022-08-19T07:00:36;27.20;63.80
43997;DHT22;34318;45.818;15.964;2022-08-19T07:03:03;27.30;63.40
43997;DHT22;34318;45.818;15.964;2022-08-19T07:05:39;27.20;63.50
43997;DHT22;34318;45.818;15.964;2022-08-19T07:08:11;27.10;63.30
43997;DHT22;34318;45.818;15.964;2022-08-19T07:10:43;27.20;62.80
43997;DHT22;34318;45.818;15.964;2022-08-19T07:13:10;27.10;62.10
43997;DHT22;34318;45.818;15.964;2022-08-19T07:15:38;27.10;62.50
43997;DHT22;34318;45.818;15.964;2022-08-19T07:18:11;27.10;62.10
43997;DHT22;34318;45.818;15.964;2022-08-19T07:20:39;27.20;61.80
43997;DHT22;34318;45.818;15.964;2022-08-19T07:23:10;27.20;62.40
43997;DHT22;34318;45.818;15.964;2022-08-19T07:25:42;27.20;62.70
43997;DHT22;34318;45.818;15.964;2022-08-19T07:28:10;27.20;63.50
43997;DHT22;34318;45.818;15.964;2022-08-19T07:30:50;27.20;63.70
43997;DHT22;34318;45.818;15.964;2022-08-19T07:33:18;27.20;64.70
43997;DHT22;34318;45.818;15.964;2022-08-19T07:35:47;27.20;65.30
43997;DHT22;34318;45.818;15.964;2022-08-19T07:38:15;27.30;65.90
43997;DHT22;34318;45.818;15.964;2022-08-19T07:40:43;27.20;66.30
43997;DHT22;34318;45.818;15.964;2022-08-19T07:43:12;27.40;66.30
43997;DHT22;34318;45.818;15.964;2022-08-19T07:45:43;27.30;67.00
43997;DHT22;34318;45.818;15.964;2022-08-19T07:48:10;27.40;66.90
43997;DHT22;34318;45.818;15.964;2022-08-19T07:50:37;27.40;67.00
43997;DHT22;34318;45.818;15.964;2022-08-19T07:53:05;27.30;67.50
43997;DHT22;34318;45.818;15.964;2022-08-19T07:55:33;27.30;68.00
43997;DHT22;34318;45.818;15.964;2022-08-19T07:58:08;27.30;68.00
43997;DHT22;34318;45.818;15.964;2022-08-19T08:00:35;27.30;67.90
43997;DHT22;34318;45.818;15.964;2022-08-19T08:03:04;27.20;68.40
43997;DHT22;34318;45.818;15.964;2022-08-19T08:05:31;27.20;68.60
43997;DHT22;34318;45.818;15.964;2022-08-19T08:08:20;27.10;68.90
43997;DHT22;34318;45.818;15.964;2022-08-19T08:11:12;27.10;68.90
43997;DHT22;34318;45.818;15.964;2022-08-19T08:13:41;27.10;68.60
43997;DHT22;34318;45.818;15.964;2022-08-19T08:16:08;27.10;68.70
43997;DHT22;34318;45.818;15.964;2022-08-19T08:18:40;27.10;68.80
43997;DHT22;34318;45.818;15.964;2022-08-19T08:21:16;27.20;68.30
43997;DHT22;34318;45.818;15.964;2022-08-19T08:23:43;27.30;67.80
43997;DHT22;34318;45.818;15.964;2022-08-19T08:26:11;27.30;67.60
43997;DHT22;34318;45.818;15.964;2022-08-19T08:28:44;27.30;67.80
43997;DHT22;34318;45.818;15.964;2022-08-19T08:31:15;27.30;67.70
43997;DHT22;34318;45.818;15.964;2022-08-19T08:33:43;27.30;67.80
43997;DHT22;34318;45.818;15.964;2022-08-19T08:36:13;27.40;67.70
43997;DHT22;34318;45.818;15.964;2022-08-19T08:38:42;27.30;68.10
43997;DHT22;34318;45.818;15.964;2022-08-19T08:41:28;27.30;67.60
43997;DHT22;34318;45.818;15.964;2022-08-19T08:44:01;27.40;67.50
43997;DHT22;34318;45.818;15.964;2022-08-19T08:46:49;27.40;67.70
43997;DHT22;34318;45.818;15.964;2022-08-19T08:52:11;27.20;68.30
43997;DHT22;34318;45.818;15.964;2022-08-19T08:54:45;27.30;68.20
43997;DHT22;34318;45.818;15.964;2022-08-19T08:57:27;27.30;68.20
43997;DHT22;34318;45.818;15.964;2022-08-19T09:00:09;27.30;68.40
43997;DHT22;34318;45.818;15.964;2022-08-19T09:02:42;27.40;68.00
43997;DHT22;34318;45.818;15.964;2022-08-19T09:05:17;27.40;68.40
43997;DHT22;34318;45.818;15.964;2022-08-19T09:11:20;27.40;68.00
43997;DHT22;34318;45.818;15.964;2022-08-19T09:17:16;27.30;69.30
43997;DHT22;34318;45.818;15.964;2022-08-19T09:19:52;27.30;69.00
43997;DHT22;34318;45.818;15.964;2022-08-19T09:22:20;27.40;69.10
43997;DHT22;34318;45.818;15.964;2022-08-19T09:24:54;27.40;69.00
43997;DHT22;34318;45.818;15.964;2022-08-19T09:27:22;27.40;68.80
43997;DHT22;34318;45.818;15.964;2022-08-19T09:30:17;27.40;69.20
43997;DHT22;34318;45.818;15.964;2022-08-19T09:32:49;27.30;70.20
43997;DHT22;34318;45.818;15.964;2022-08-19T09:35:21;27.20;70.80
43997;DHT22;34318;45.818;15.964;2022-08-19T09:37:51;27.20;71.70
43997;DHT22;34318;45.818;15.964;2022-08-19T09:40:29;27.10;73.30
43997;DHT22;34318;45.818;15.964;2022-08-19T09:43:04;27.10;73.20
43997;DHT22;34318;45.818;15.964;2022-08-19T09:45:38;27.10;75.80
43997;DHT22;34318;45.818;15.964;2022-08-19T09:48:06;27.00;79.70
43997;DHT22;34318;45.818;15.964;2022-08-19T09:50:40;27.10;78.80
43997;DHT22;34318;45.818;15.964;2022-08-19T09:53:18;27.10;79.00
43997;DHT22;34318;45.818;15.964;2022-08-19T09:55:45;27.20;78.40
43997;DHT22;34318;45.818;15.964;2022-08-19T09:58:13;27.20;78.70
43997;DHT22;34318;45.818;15.964;2022-08-19T10:00:41;27.20;78.90
43997;DHT22;34318;45.818;15.964;2022-08-19T10:03:18;27.10;80.60
43997;DHT22;34318;45.818;15.964;2022-08-19T10:06:03;27.00;81.10
43997;DHT22;34318;45.818;15.964;2022-08-19T10:08:42;27.00;81.10
43997;DHT22;34318;45.818;15.964;2022-08-19T10:11:16;26.90;80.10
43997;DHT22;34318;45.818;15.964;2022-08-19T10:13:55;26.80;80.60
43997;DHT22;34318;45.818;15.964;2022-08-19T10:16:28;26.80;79.80
43997;DHT22;34318;45.818;15.964;2022-08-19T10:19:05;26.80;80.00
43997;DHT22;34318;45.818;15.964;2022-08-19T10:21:32;26.90;80.10
43997;DHT22;34318;45.818;15.964;2022-08-19T10:24:03;27.00;79.80
43997;DHT22;34318;45.818;15.964;2022-08-19T10:26:37;27.10;79.20
43997;DHT22;34318;45.818;15.964;2022-08-19T10:29:26;27.00;79.20
43997;DHT22;34318;45.818;15.964;2022-08-19T10:32:02;27.10;78.80
43997;DHT22;34318;45.818;15.964;2022-08-19T10:34:30;27.00;78.70
43997;DHT22;34318;45.818;15.964;2022-08-19T10:36:59;27.00;77.90
43997;DHT22;34318;45.818;15.964;2022-08-19T10:39:39;27.00;77.40
43997;DHT22;34318;45.818;15.964;2022-08-19T10:42:09;27.10;76.60
43997;DHT22;34318;45.818;15.964;2022-08-19T10:44:43;27.10;75.90
43997;DHT22;34318;45.818;15.964;2022-08-19T10:47:12;27.30;74.60
43997;DHT22;34318;45.818;15.964;2022-08-19T10:50:00;27.30;73.90
43997;DHT22;34318;45.818;15.964;2022-08-19T10:52:47;27.40;72.30
43997;DHT22;34318;45.818;15.964;2022-08-19T10:55:22;27.40;71.30
43997;DHT22;34318;45.818;15.964;2022-08-19T11:02:00;27.60;69.30
43997;DHT22;34318;45.818;15.964;2022-08-19T11:04:41;27.70;68.00
43997;DHT22;34318;45.818;15.964;2022-08-19T11:07:12;27.80;67.60
43997;DHT22;34318;45.818;15.964;2022-08-19T11:09:45;27.70;67.80
43997;DHT22;34318;45.818;15.964;2022-08-19T11:15:31;27.70;68.50
43997;DHT22;34318;45.818;15.964;2022-08-19T11:18:04;27.80;67.90
43997;DHT22;34318;45.818;15.964;2022-08-19T11:20:41;27.80;67.60
43997;DHT22;34318;45.818;15.964;2022-08-19T11:23:09;27.80;67.60
43997;DHT22;34318;45.818;15.964;2022-08-19T11:25:44;27.80;67.50
43997;DHT22;34318;45.818;15.964;2022-08-19T11:28:14;27.90;67.70
43997;DHT22;34318;45.818;15.964;2022-08-19T11:30:46;27.80;67.80
43997;DHT22;34318;45.818;15.964;2022-08-19T11:36:48;27.90;67.10
43997;DHT22;34318;45.818;15.964;2022-08-19T11:39:49;27.90;66.30
43997;DHT22;34318;45.818;15.964;2022-08-19T11:42:29;27.90;66.00
43997;DHT22;34318;45.818;15.964;2022-08-19T11:45:32;27.90;66.20
43997;DHT22;34318;45.818;15.964;2022-08-19T11:48:05;27.90;66.20
43997;DHT22;34318;45.818;15.964;2022-08-19T11:50:35;28.00;66.00
43997;DHT22;34318;45.818;15.964;2022-08-19T11:53:06;28.00;66.10
43997;DHT22;34318;45.818;15.964;2022-08-19T11:55:38;28.00;65.80
43997;DHT22;34318;45.818;15.964;2022-08-19T11:58:20;28.00;65.80
43997;DHT22;34318;45.818;15.964;2022-08-19T12:00:51;28.00;66.10
43997;DHT22;34318;45.818;15.964;2022-08-19T12:03:42;28.00;65.80
43997;DHT22;34318;45.818;15.964;2022-08-19T12:06:22;28.00;65.80
43997;DHT22;34318;45.818;15.964;2022-08-19T12:12:12;28.10;65.40
43997;DHT22;34318;45.818;15.964;2022-08-19T12:15:07;28.10;65.20
43997;DHT22;34318;45.818;15.964;2022-08-19T12:17:56;28.10;64.30
43997;DHT22;34318;45.818;15.964;2022-08-19T12:20:42;28.10;64.50
43997;DHT22;34318;45.818;15.964;2022-08-19T12:23:24;28.10;64.70
43997;DHT22;34318;45.818;15.964;2022-08-19T12:26:31;28.10;64.90
43997;DHT22;34318;45.818;15.964;2022-08-19T12:29:32;28.20;65.70
43997;DHT22;34318;45.818;15.964;2022-08-19T12:32:06;28.20;66.20
43997;DHT22;34318;45.818;15.964;2022-08-19T12:34:41;28.30;66.20
43997;DHT22;34318;45.818;15.964;2022-08-19T12:37:10;28.20;66.50
43997;DHT22;34318;45.818;15.964;2022-08-19T12:39:42;28.30;66.50
43997;DHT22;34318;45.818;15.964;2022-08-19T12:42:13;28.40;66.90
43997;DHT22;34318;45.818;15.964;2022-08-19T12:44:52;28.30;66.50
43997;DHT22;34318;45.818;15.964;2022-08-19T12:51:19;28.50;66.40
43997;DHT22;34318;45.818;15.964;2022-08-19T12:57:56;28.60;67.80
43997;DHT22;34318;45.818;15.964;2022-08-19T13:00:24;28.60;66.80
43997;DHT22;34318;45.818;15.964;2022-08-19T13:02:56;28.50;65.50
43997;DHT22;34318;45.818;15.964;2022-08-19T13:05:54;28.50;64.90
43997;DHT22;34318;45.818;15.964;2022-08-19T13:08:23;28.50;65.60
43997;DHT22;34318;45.818;15.964;2022-08-19T13:10:53;28.60;65.80
43997;DHT22;34318;45.818;15.964;2022-08-19T13:13:24;28.60;65.30
43997;DHT22;34318;45.818;15.964;2022-08-19T13:15:52;28.60;65.40
43997;DHT22;34318;45.818;15.964;2022-08-19T13:18:29;28.50;65.30
43997;DHT22;34318;45.818;15.964;2022-08-19T13:21:15;28.60;65.20
43997;DHT22;34318;45.818;15.964;2022-08-19T13:23:54;28.60;64.50
43997;DHT22;34318;45.818;15.964;2022-08-19T13:29:44;28.70;64.60
43997;DHT22;34318;45.818;15.964;2022-08-19T13:32:42;28.70;63.60
43997;DHT22;34318;45.818;15.964;2022-08-19T13:35:58;28.70;63.30
43997;DHT22;34318;45.818;15.964;2022-08-19T13:38:41;28.60;62.50
43997;DHT22;34318;45.818;15.964;2022-08-19T13:41:09;28.60;61.80
43997;DHT22;34318;45.818;15.964;2022-08-19T13:43:44;28.50;62.10
43997;DHT22;34318;45.818;15.964;2022-08-19T13:46:12;28.40;62.50
43997;DHT22;34318;45.818;15.964;2022-08-19T13:48:57;28.40;62.10
43997;DHT22;34318;45.818;15.964;2022-08-19T13:51:28;28.30;61.70
43997;DHT22;34318;45.818;15.964;2022-08-19T13:53:56;28.30;61.30
43997;DHT22;34318;45.818;15.964;2022-08-19T13:56:24;28.30;61.40
43997;DHT22;34318;45.818;15.964;2022-08-19T13:59:02;28.30;61.30
43997;DHT22;34318;45.818;15.964;2022-08-19T14:01:31;28.30;61.80
43997;DHT22;34318;45.818;15.964;2022-08-19T14:04:04;28.30;61.80
43997;DHT22;34318;45.818;15.964;2022-08-19T14:06:37;28.40;61.50
43997;DHT22;34318;45.818;15.964;2022-08-19T14:09:07;28.40;61.80
43997;DHT22;34318;45.818;15.964;2022-08-19T14:11:39;28.40;61.80
43997;DHT22;34318;45.818;15.964;2022-08-19T14:14:15;28.50;61.60
43997;DHT22;34318;45.818;15.964;2022-08-19T14:16:45;28.40;61.50
43997;DHT22;34318;45.818;15.964;2022-08-19T14:19:12;28.40;61.60
43997;DHT22;34318;45.818;15.964;2022-08-19T14:21:40;28.40;61.60
43997;DHT22;34318;45.818;15.964;2022-08-19T14:24:08;28.40;61.30
43997;DHT22;34318;45.818;15.964;2022-08-19T14:26:35;28.40;61.40
43997;DHT22;34318;45.818;15.964;2022-08-19T14:29:03;28.40;60.80
43997;DHT22;34318;45.818;15.964;2022-08-19T14:31:32;28.40;61.20
43997;DHT22;34318;45.818;15.964;2022-08-19T14:33:59;28.30;61.20
43997;DHT22;34318;45.818;15.964;2022-08-19T14:36:30;28.30;61.10
43997;DHT22;34318;45.818;15.964;2022-08-19T14:39:22;28.30;61.50
43997;DHT22;34318;45.818;15.964;2022-08-19T14:41:48;28.30;61.10
43997;DHT22;34318;45.818;15.964;2022-08-19T14:44:21;28.30;61.30
43997;DHT22;34318;45.818;15.964;2022-08-19T14:47:02;28.30;61.40
43997;DHT22;34318;45.818;15.964;2022-08-19T14:49:42;28.30;61.30
43997;DHT22;34318;45.818;15.964;2022-08-19T14:52:15;28.30;61.50
43997;DHT22;34318;45.818;15.964;2022-08-19T14:54:44;28.40;61.40
43997;DHT22;34318;45.818;15.964;2022-08-19T14:57:14;28.30;61.30
43997;DHT22;34318;45.818;15.964;2022-08-19T14:59:45;28.30;61.30
43997;DHT22;34318;45.818;15.964;2022-08-19T15:02:15;28.40;61.40
43997;DHT22;34318;45.818;15.964;2022-08-19T15:05:01;28.30;61.10
43997;DHT22;34318;45.818;15.964;2022-08-19T15:07:29;28.40;60.90
43997;DHT22;34318;45.818;15.964;2022-08-19T15:09:59;28.40;60.40
43997;DHT22;34318;45.818;15.964;2022-08-19T15:12:26;28.40;60.50
43997;DHT22;34318;45.818;15.964;2022-08-19T15:14:53;28.30;60.20
43997;DHT22;34318;45.818;15.964;2022-08-19T15:17:22;28.40;59.90
43997;DHT22;34318;45.818;15.964;2022-08-19T15:20:17;28.40;59.80
43997;DHT22;34318;45.818;15.964;2022-08-19T15:22:49;28.40;60.00
43997;DHT22;34318;45.818;15.964;2022-08-19T15:25:18;28.40;60.10
43997;DHT22;34318;45.818;15.964;2022-08-19T15:27:47;28.30;60.00
43997;DHT22;34318;45.818;15.964;2022-08-19T15:30:25;28.40;60.10
43997;DHT22;34318;45.818;15.964;2022-08-19T15:32:55;28.40;60.00
43997;DHT22;34318;45.818;15.964;2022-08-19T15:35:23;28.40;59.80
43997;DHT22;34318;45.818;15.964;2022-08-19T15:37:52;28.30;59.50
43997;DHT22;34318;45.818;15.964;2022-08-19T15:40:22;28.40;59.70
43997;DHT22;34318;45.818;15.964;2022-08-19T15:42:51;28.40;59.40
43997;DHT22;34318;45.818;15.964;2022-08-19T15:45:20;28.50;58.70
43997;DHT22;34318;45.818;15.964;2022-08-19T15:47:48;28.40;59.10
43997;DHT22;34318;45.818;15.964;2022-08-19T15:50:19;28.40;59.80
43997;DHT22;34318;45.818;15.964;2022-08-19T15:52:55;28.50;60.40
43997;DHT22;34318;45.818;15.964;2022-08-19T15:55:30;28.50;61.30
43997;DHT22;34318;45.818;15.964;2022-08-19T15:58:05;28.60;62.70
43997;DHT22;34318;45.818;15.964;2022-08-19T16:01:06;28.50;63.60
43997;DHT22;34318;45.818;15.964;2022-08-19T16:03:54;28.40;64.50
43997;DHT22;34318;45.818;15.964;2022-08-19T16:06:52;28.40;64.30
43997;DHT22;34318;45.818;15.964;2022-08-19T16:09:24;28.30;64.50
43997;DHT22;34318;45.818;15.964;2022-08-19T16:12:04;28.40;64.40
43997;DHT22;34318;45.818;15.964;2022-08-19T16:14:39;28.30;64.20
43997;DHT22;34318;45.818;15.964;2022-08-19T16:17:15;28.30;64.30
43997;DHT22;34318;45.818;15.964;2022-08-19T16:19:46;28.30;64.90
43997;DHT22;34318;45.818;15.964;2022-08-19T16:22:18;28.30;66.10
43997;DHT22;34318;45.818;15.964;2022-08-19T16:24:45;28.20;65.60